createdAt,value
2022-10-09T00:00:38.093Z,102187.84
2022-10-09T00:03:03.638Z,102185.09
2022-10-09T00:05:29.308Z,102185.94
2022-10-09T00:07:54.896Z,102186.75
2022-10-09T00:10:20.442Z,102184.25
2022-10-09T00:12:46.231Z,102188.69
2022-10-09T00:15:11.908Z,102188.97
2022-10-09T00:17:37.449Z,102190.63
2022-10-09T00:20:03.121Z,102182.31
2022-10-09T00:22:28.662Z,102185.94
2022-10-09T00:24:54.212Z,102185.09
2022-10-09T00:27:20.985Z,102183.44
2022-10-09T00:29:46.532Z,102183.44
2022-10-09T00:32:12.080Z,102182.31
2022-10-09T00:34:37.739Z,102184.00
2022-10-09T00:37:03.272Z,102181.50
2022-10-09T00:39:28.828Z,102183.16
2022-10-09T00:41:54.374Z,102190.63
2022-10-09T00:44:39.814Z,102185.09
2022-10-09T00:47:05.357Z,102188.69
2022-10-09T00:49:31.475Z,102188.69
2022-10-09T00:51:57.957Z,102183.16
2022-10-09T00:54:23.863Z,102182.31
2022-10-09T00:56:49.528Z,102176.78
2022-10-09T00:59:15.379Z,102182.31
2022-10-09T01:01:40.995Z,102174.84
2022-10-09T01:04:06.684Z,102184.25
2022-10-09T01:06:52.137Z,102185.94
2022-10-09T01:09:18.910Z,102183.44
2022-10-09T01:12:04.350Z,102189.53
2022-10-09T01:14:31.963Z,102187.84
2022-10-09T01:17:17.404Z,102187.03
2022-10-09T01:20:02.977Z,102181.22
2022-10-09T01:22:39.363Z,102180.38
2022-10-09T01:25:06.162Z,102175.94
2022-10-09T01:27:31.832Z,102176.78
2022-10-09T01:30:05.395Z,102178.72
2022-10-09T01:32:32.031Z,102171.25
2022-10-09T01:34:57.581Z,102180.38
2022-10-09T01:37:23.237Z,102168.47
2022-10-09T01:39:49.151Z,102174.84
2022-10-09T01:42:14.850Z,102172.34
2022-10-09T01:44:40.599Z,102174.84
2022-10-09T01:47:06.418Z,102165.72
2022-10-09T01:49:41.304Z,102166.81
2022-10-09T01:52:11.055Z,102173.19
2022-10-09T01:54:37.780Z,102165.72
2022-10-09T01:57:04.283Z,102165.72
2022-10-09T01:59:29.828Z,102157.41
2022-10-09T02:01:55.639Z,102154.63
2022-10-09T02:04:21.269Z,102159.34
2022-10-09T02:06:46.821Z,102153.81
2022-10-09T02:09:13.417Z,102151.88
2022-10-09T02:11:39.174Z,102146.34
2022-10-09T02:14:04.714Z,102145.50
2022-10-09T02:16:38.615Z,102146.34
2022-10-09T02:19:10.089Z,102139.97
2022-10-09T02:21:39.724Z,102138.31
2022-10-09T02:24:05.842Z,102137.19
2022-10-09T02:26:31.565Z,102135.25
2022-10-09T02:28:57.113Z,102135.25
2022-10-09T02:31:26.461Z,102138.84
2022-10-09T02:33:55.857Z,102141.63
2022-10-09T02:36:21.395Z,102145.50
2022-10-09T02:38:46.933Z,102142.72
2022-10-09T02:41:12.479Z,102147.16
2022-10-09T02:43:38.013Z,102140.78
2022-10-09T02:46:03.599Z,102144.66
2022-10-09T02:48:29.176Z,102148.28
2022-10-09T02:50:54.724Z,102138.03
2022-10-09T02:53:20.259Z,102143.56
2022-10-09T02:55:45.800Z,102142.72
2022-10-09T02:58:11.332Z,102139.97
2022-10-09T03:00:37.148Z,102130.81
2022-10-09T03:03:02.760Z,102145.50
2022-10-09T03:05:28.347Z,102135.25
2022-10-09T03:07:53.886Z,102141.91
2022-10-09T03:10:19.550Z,102139.97
2022-10-09T03:12:45.178Z,102138.03
2022-10-09T03:15:11.036Z,102139.97
2022-10-09T03:17:36.582Z,102134.44
2022-10-09T03:20:02.326Z,102134.44
2022-10-09T03:22:28.077Z,102134.44
2022-10-09T03:24:53.639Z,102136.38
2022-10-09T03:27:19.180Z,102130.81
2022-10-09T03:29:44.723Z,102133.59
2022-10-09T03:32:10.323Z,102130.81
2022-10-09T03:34:35.920Z,102133.59
2022-10-09T03:37:01.463Z,102130.81
2022-10-09T03:39:27.005Z,102128.88
2022-10-09T03:41:52.561Z,102123.34
2022-10-09T03:44:18.096Z,102129.72
2022-10-09T03:46:43.686Z,102123.34
2022-10-09T03:49:09.247Z,102117.81
2022-10-09T03:51:34.794Z,102106.75
2022-10-09T03:54:00.334Z,102117.81
2022-10-09T03:56:25.888Z,102126.13
2022-10-09T03:58:51.458Z,102126.13
2022-10-09T04:01:17.128Z,102126.13
2022-10-09T04:03:42.740Z,102128.06
2022-10-09T04:06:08.297Z,102135.25
2022-10-09T04:08:34.483Z,102124.47
2022-10-09T04:11:00.151Z,102124.19
2022-10-09T04:13:25.750Z,102126.13
2022-10-09T04:15:51.580Z,102126.94
2022-10-09T04:18:17.520Z,102121.69
2022-10-09T04:20:47.571Z,102132.50
2022-10-09T04:23:13.123Z,102126.13
2022-10-09T04:25:38.677Z,102128.88
2022-10-09T04:28:04.268Z,102116.97
2022-10-09T04:30:29.843Z,102124.19
2022-10-09T04:32:55.386Z,102117.81
2022-10-09T04:35:20.936Z,102117.81
2022-10-09T04:37:46.473Z,102115.03
2022-10-09T04:40:12.022Z,102118.66
2022-10-09T04:42:37.608Z,102111.44
2022-10-09T04:45:03.379Z,102099.28
2022-10-09T04:47:28.931Z,102097.59
2022-10-09T04:49:54.469Z,102103.97
2022-10-09T04:52:20.016Z,102093.13
2022-10-09T04:54:45.552Z,102094.00
2022-10-09T04:57:11.106Z,102103.97
2022-10-09T04:59:36.644Z,102096.78
2022-10-09T05:02:02.973Z,102088.47
2022-10-09T05:04:28.557Z,102090.13
2022-10-09T05:06:54.104Z,102086.53
2022-10-09T05:09:19.638Z,102098.44
2022-10-09T05:11:45.195Z,102088.19
2022-10-09T05:14:10.728Z,102086.53
2022-10-09T05:17:01.081Z,102086.53
2022-10-09T05:19:22.137Z,102086.53
2022-10-09T05:21:47.680Z,102080.16
2022-10-09T05:24:13.224Z,102079.31
2022-10-09T05:26:38.765Z,102082.06
2022-10-09T05:29:04.312Z,102082.94
2022-10-09T05:31:30.913Z,102092.06
2022-10-09T05:33:58.257Z,102092.06
2022-10-09T05:36:23.799Z,102088.47
2022-10-09T05:38:49.341Z,102094.00
2022-10-09T05:41:15.732Z,102095.66
2022-10-09T05:43:41.874Z,102090.13
2022-10-09T05:46:08.782Z,102094.84
2022-10-09T05:48:34.743Z,102092.06
2022-10-09T05:51:16.177Z,102089.28
2022-10-09T05:53:42.209Z,102094.00
2022-10-09T05:56:09.784Z,102088.47
2022-10-09T05:58:35.317Z,102091.47
2022-10-09T06:01:00.976Z,102085.69
2022-10-09T06:03:26.646Z,102091.25
2022-10-09T06:05:52.258Z,102098.44
2022-10-09T06:08:17.804Z,102093.72
2022-10-09T06:10:43.341Z,102088.47
2022-10-09T06:13:08.885Z,102094.00
2022-10-09T06:15:34.421Z,102097.59
2022-10-09T06:17:59.971Z,102099.53
2022-10-09T06:20:25.590Z,102096.78
2022-10-09T06:22:51.439Z,102102.31
2022-10-09T06:25:17.188Z,102105.91
2022-10-09T06:27:42.737Z,102103.38
2022-10-09T06:30:08.562Z,102098.69
2022-10-09T06:32:34.105Z,102098.69
2022-10-09T06:34:59.661Z,102103.13
2022-10-09T06:37:25.210Z,102101.19
2022-10-09T06:39:50.747Z,102099.53
2022-10-09T06:42:16.681Z,102098.69
2022-10-09T06:44:43.661Z,102096.78
2022-10-09T06:47:09.216Z,102095.91
2022-10-09T06:49:34.755Z,102098.69
2022-10-09T06:52:00.304Z,102109.75
2022-10-09T06:54:25.851Z,102105.91
2022-10-09T06:56:52.715Z,102097.59
2022-10-09T06:59:18.252Z,102110.63
2022-10-09T07:01:43.859Z,102099.53
2022-10-09T07:04:11.078Z,102102.31
2022-10-09T07:06:37.748Z,102110.63
2022-10-09T07:09:04.147Z,102113.38
2022-10-09T07:11:31.026Z,102114.22
2022-10-09T07:13:57.198Z,102107.84
2022-10-09T07:16:23.912Z,102110.63
2022-10-09T07:18:49.621Z,102107.84
2022-10-09T07:21:15.174Z,102101.44
2022-10-09T07:23:40.908Z,102099.53
2022-10-09T07:26:10.725Z,102107.84
2022-10-09T07:28:36.327Z,102098.69
2022-10-09T07:31:02.767Z,102112.53
2022-10-09T07:33:28.352Z,102106.97
2022-10-09T07:35:54.388Z,102097.59
2022-10-09T07:38:19.945Z,102106.97
2022-10-09T07:40:45.496Z,102091.25
2022-10-09T07:43:11.057Z,102082.94
2022-10-09T07:45:36.605Z,102086.53
2022-10-09T07:48:02.148Z,102080.16
2022-10-09T07:50:27.698Z,102087.59
2022-10-09T07:52:53.256Z,102086.53
2022-10-09T07:55:18.796Z,102087.59
2022-10-09T07:57:44.346Z,102086.53
2022-10-09T08:00:10.366Z,102089.28
2022-10-09T08:02:35.961Z,102087.59
2022-10-09T08:05:01.553Z,102087.59
2022-10-09T08:07:30.310Z,102089.28
2022-10-09T08:09:58.264Z,102086.53
2022-10-09T08:12:23.811Z,102082.06
2022-10-09T08:14:49.386Z,102082.94
2022-10-09T08:17:15.294Z,102082.06
2022-10-09T08:19:40.844Z,102080.16
2022-10-09T08:22:06.383Z,102078.47
2022-10-09T08:24:31.929Z,102071.84
2022-10-09T08:26:57.477Z,102075.69
2022-10-09T08:29:23.016Z,102079.31
2022-10-09T08:31:48.563Z,102077.41
2022-10-09T08:34:14.109Z,102077.41
2022-10-09T08:36:39.647Z,102076.53
2022-10-09T08:39:05.188Z,102077.41
2022-10-09T08:41:34.380Z,102076.28
2022-10-09T08:44:01.217Z,102068.22
2022-10-09T08:46:28.818Z,102069.91
2022-10-09T08:48:54.392Z,102069.09
2022-10-09T08:51:21.520Z,102069.09
2022-10-09T08:53:49.430Z,102061.84
2022-10-09T08:56:15.047Z,102063.56
2022-10-09T08:58:40.932Z,102056.31
2022-10-09T09:01:16.245Z,102057.16
2022-10-09T09:03:45.564Z,102051.63
2022-10-09T09:06:14.213Z,102059.09
2022-10-09T09:08:44.537Z,102046.09
2022-10-09T09:11:21.802Z,102040.53
2022-10-09T09:13:51.391Z,102041.66
2022-10-09T09:16:23.473Z,102040.53
2022-10-09T09:18:52.573Z,102035.00
2022-10-09T09:21:29.404Z,102035.00
2022-10-09T09:23:54.951Z,102029.47
2022-10-09T09:26:20.584Z,102023.94
2022-10-09T09:28:46.411Z,102023.94
2022-10-09T09:31:27.707Z,102021.16
2022-10-09T09:34:02.185Z,102010.94
2022-10-09T09:36:29.908Z,102013.72
2022-10-09T09:41:41.723Z,102010.09
2022-10-09T09:44:08.496Z,102009.00
2022-10-09T09:46:34.082Z,102007.31
2022-10-09T09:48:59.678Z,102001.78
2022-10-09T09:51:28.982Z,102005.41
2022-10-09T09:53:55.747Z,101997.94
2022-10-09T09:56:39.133Z,102000.72
2022-10-09T09:59:36.297Z,101997.09
2022-10-09T10:02:03.397Z,101990.72
2022-10-09T10:04:29.033Z,101980.75
2022-10-09T10:06:54.583Z,101978.81
2022-10-09T10:09:20.128Z,101975.78
2022-10-09T10:11:47.256Z,101965.78
2022-10-09T10:14:13.053Z,101964.97
2022-10-09T10:16:39.077Z,101961.13
2022-10-09T10:19:05.690Z,101957.50
2022-10-09T10:21:39.102Z,101956.41
2022-10-09T10:24:04.738Z,101943.66
2022-10-09T10:26:35.077Z,101947.28
2022-10-09T10:29:20.696Z,101945.59
2022-10-09T10:31:55.053Z,101946.41
2022-10-09T10:34:23.373Z,101940.06
2022-10-09T10:36:50.141Z,101933.69
2022-10-09T10:39:20.362Z,101924.28
2022-10-09T10:41:46.992Z,101931.50
2022-10-09T10:44:21.760Z,101928.97
2022-10-09T10:46:49.063Z,101918.72
2022-10-09T10:49:16.977Z,101915.13
2022-10-09T10:51:52.952Z,101914.88
2022-10-09T10:57:04.365Z,101906.84
2022-10-09T11:02:32.005Z,101907.66
2022-10-09T11:05:05.689Z,101898.53
2022-10-09T11:07:36.768Z,101891.91
2022-10-09T11:10:13.196Z,101893.81
2022-10-09T11:15:18.580Z,101881.91
2022-10-09T11:18:04.019Z,101882.75
2022-10-09T11:20:37.245Z,101874.44
2022-10-09T11:23:05.147Z,101866.13
2022-10-09T11:25:37.247Z,101865.06
2022-10-09T11:28:18.620Z,101859.78
2022-10-09T11:30:46.869Z,101848.69
2022-10-09T11:33:22.139Z,101846.75
2022-10-09T11:35:49.199Z,101841.22
2022-10-09T11:38:21.180Z,101839.56
2022-10-09T11:40:46.821Z,101833.78
2022-10-09T11:43:32.259Z,101824.63
2022-10-09T11:45:59.899Z,101832.09
2022-10-09T11:48:41.972Z,101824.63
2022-10-09T11:51:15.557Z,101814.66
2022-10-09T11:53:41.109Z,101817.16
2022-10-09T11:56:07.606Z,101808.28
2022-10-09T11:58:33.157Z,101812.72
2022-10-09T12:01:18.813Z,101807.19
2022-10-09T12:03:44.389Z,101802.47
2022-10-09T12:06:11.448Z,101795.03
2022-10-09T12:08:37.741Z,101797.78
2022-10-09T12:11:07.501Z,101789.50
2022-10-09T12:16:31.097Z,101770.09
2022-10-09T12:18:56.783Z,101770.09
2022-10-09T12:21:24.247Z,101762.63
2022-10-09T12:23:50.472Z,101752.63
2022-10-09T12:26:16.023Z,101749.88
2022-10-09T12:28:44.272Z,101754.56
2022-10-09T12:31:20.017Z,101741.56
2022-10-09T12:33:47.267Z,101737.97
2022-10-09T12:36:13.914Z,101741.56
2022-10-09T12:38:39.636Z,101744.34
2022-10-09T12:41:06.608Z,101732.44
2022-10-09T12:43:32.269Z,101731.34
2022-10-09T12:45:58.029Z,101730.50
2022-10-09T12:48:25.289Z,101720.28
2022-10-09T12:50:51.137Z,101719.41
2022-10-09T12:53:17.721Z,101713.88
2022-10-09T12:55:44.262Z,101701.97
2022-10-09T12:58:26.017Z,101709.22
2022-10-09T13:00:53.933Z,101696.44
2022-10-09T13:03:22.389Z,101690.91
2022-10-09T13:05:47.928Z,101696.44
2022-10-09T13:08:20.321Z,101691.75
2022-10-09T13:10:45.862Z,101688.97
2022-10-09T13:13:13.250Z,101682.59
2022-10-09T13:15:38.795Z,101682.59
2022-10-09T13:18:20.962Z,101668.78
2022-10-09T13:20:46.568Z,101664.06
2022-10-09T13:23:24.561Z,101666.00
2022-10-09T13:25:50.799Z,101648.56
2022-10-09T13:28:17.617Z,101646.63
2022-10-09T13:30:43.219Z,101653.84
2022-10-09T13:33:11.350Z,101636.38
2022-10-09T13:35:36.894Z,101643.59
2022-10-09T13:38:02.456Z,101640.00
2022-10-09T13:40:28.003Z,101635.56
2022-10-09T13:42:54.137Z,101634.72
2022-10-09T13:45:19.825Z,101632.78
2022-10-09T13:47:45.378Z,101629.19
2022-10-09T13:50:14.135Z,101628.06
2022-10-09T13:55:10.200Z,101618.94
2022-10-09T13:57:35.749Z,101621.72
2022-10-09T14:00:01.325Z,101605.94
2022-10-09T14:02:26.873Z,101604.03
2022-10-09T14:04:52.747Z,101605.94
2022-10-09T14:07:18.297Z,101599.56
2022-10-09T14:09:43.849Z,101597.63
2022-10-09T14:12:09.395Z,101586.56
2022-10-09T14:14:34.934Z,101587.66
2022-10-09T14:17:00.479Z,101583.78
2022-10-09T14:19:27.208Z,101581.00
2022-10-09T14:21:56.133Z,101572.72
2022-10-09T14:24:21.871Z,101573.56
2022-10-09T14:26:51.456Z,101569.13
2022-10-09T14:29:17.383Z,101570.81
2022-10-09T14:31:42.916Z,101569.94
2022-10-09T14:34:08.990Z,101567.19
2022-10-09T14:36:36.283Z,101555.28
2022-10-09T14:39:01.835Z,101547.81
2022-10-09T14:41:27.505Z,101542.25
2022-10-09T14:43:55.847Z,101550.56
2022-10-09T14:46:21.386Z,101540.34
2022-10-09T14:48:48.206Z,101543.13
2022-10-09T14:51:14.714Z,101535.66
2022-10-09T14:53:40.279Z,101543.13
2022-10-09T14:56:06.845Z,101538.41
2022-10-09T14:58:33.297Z,101522.88
2022-10-09T15:00:59.129Z,101520.13
2022-10-09T15:03:24.964Z,101525.41
2022-10-09T15:05:50.588Z,101519.03
2022-10-09T15:08:16.164Z,101518.22
2022-10-09T15:10:42.577Z,101517.09
2022-10-09T15:13:08.434Z,101512.66
2022-10-09T15:15:33.987Z,101501.59
2022-10-09T15:17:59.535Z,101499.09
2022-10-09T15:20:25.083Z,101499.66
2022-10-09T15:22:50.633Z,101499.66
2022-10-09T15:25:16.174Z,101485.00
2022-10-09T15:27:41.731Z,101489.66
2022-10-09T15:30:07.678Z,101486.91
2022-10-09T15:32:33.262Z,101487.75
2022-10-09T15:34:58.801Z,101482.22
2022-10-09T15:37:24.362Z,101484.13
2022-10-09T15:39:49.905Z,101482.22
2022-10-09T15:42:15.459Z,101470.28
2022-10-09T15:44:41.271Z,101465.63
2022-10-09T15:47:06.970Z,101469.22
2022-10-09T15:49:32.516Z,101459.22
2022-10-09T15:51:58.055Z,101456.44
2022-10-09T15:54:23.633Z,101456.44
2022-10-09T15:56:49.175Z,101450.09
2022-10-09T15:59:16.172Z,101447.06
2022-10-09T16:01:41.946Z,101444.56
2022-10-09T16:04:07.619Z,101442.63
2022-10-09T16:06:33.192Z,101432.41
2022-10-09T16:08:58.742Z,101432.41
2022-10-09T16:11:26.422Z,101434.31
2022-10-09T16:13:52.437Z,101435.16
2022-10-09T16:16:19.008Z,101424.09
2022-10-09T16:18:44.560Z,101432.41
2022-10-09T16:21:13.069Z,101428.78
2022-10-09T16:23:38.947Z,101426.00
2022-10-09T16:26:04.559Z,101426.88
2022-10-09T16:28:30.466Z,101422.16
2022-10-09T16:30:56.045Z,101415.78
2022-10-09T16:33:21.773Z,101416.88
2022-10-09T16:35:47.311Z,101419.66
2022-10-09T16:38:13.240Z,101413.03
2022-10-09T16:41:01.490Z,101415.78
2022-10-09T16:43:27.993Z,101416.88
2022-10-09T16:45:53.542Z,101413.03
2022-10-09T16:48:19.090Z,101410.25
2022-10-09T16:50:44.892Z,101409.41
2022-10-09T16:53:10.445Z,101412.16
2022-10-09T16:55:35.983Z,101408.31
2022-10-09T16:58:01.536Z,101401.94
2022-10-09T17:00:27.103Z,101409.41
2022-10-09T17:02:52.696Z,101408.31
2022-10-09T17:05:19.424Z,101409.41
2022-10-09T17:07:45.001Z,101408.31
2022-10-09T17:10:10.541Z,101403.88
2022-10-09T17:12:36.370Z,101410.25
2022-10-09T17:15:02.609Z,101406.63
2022-10-09T17:17:28.155Z,101403.03
2022-10-09T17:19:53.738Z,101410.50
2022-10-09T17:22:19.301Z,101405.81
2022-10-09T17:24:45.092Z,101409.13
2022-10-09T17:27:10.639Z,101405.81
2022-10-09T17:29:36.182Z,101410.25
2022-10-09T17:32:02.088Z,101410.25
2022-10-09T17:34:28.199Z,101401.94
2022-10-09T17:36:53.744Z,101405.81
2022-10-09T17:39:19.292Z,101403.03
2022-10-09T17:41:45.830Z,101407.50
2022-10-09T17:44:11.418Z,101410.25
2022-10-09T17:46:36.961Z,101398.31
2022-10-09T17:49:02.512Z,101411.09
2022-10-09T17:51:29.356Z,101402.78
2022-10-09T17:56:27.805Z,101404.72
2022-10-09T17:58:55.133Z,101396.41
2022-10-09T18:01:20.809Z,101401.09
2022-10-09T18:03:46.396Z,101386.44
2022-10-09T18:06:13.643Z,101401.94
2022-10-09T18:08:39.323Z,101393.66
2022-10-09T18:11:07.188Z,101387.25
2022-10-09T18:13:33.713Z,101378.94
2022-10-09T18:15:59.261Z,101376.19
2022-10-09T18:18:24.809Z,101377.88
2022-10-09T18:20:50.347Z,101375.09
2022-10-09T18:23:20.535Z,101377.03
2022-10-09T18:25:48.017Z,101375.09
2022-10-09T18:28:14.278Z,101371.50
2022-10-09T18:30:41.015Z,101374.28
2022-10-09T18:33:06.768Z,101369.56
2022-10-09T18:35:34.100Z,101372.34
2022-10-09T18:37:59.651Z,101365.13
2022-10-09T18:40:25.264Z,101364.28
2022-10-09T18:42:51.821Z,101359.56
2022-10-09T18:45:17.766Z,101360.44
2022-10-09T18:47:43.316Z,101362.34
2022-10-09T18:50:09.218Z,101367.06
2022-10-09T18:52:34.824Z,101359.56
2022-10-09T18:55:00.380Z,101364.03
2022-10-09T18:57:25.919Z,101365.97
2022-10-09T18:59:51.504Z,101359.56
2022-10-09T19:02:17.155Z,101365.69
2022-10-09T19:04:42.706Z,101361.25
2022-10-09T19:07:08.244Z,101359.56
2022-10-09T19:09:34.043Z,101356.81
2022-10-09T19:11:59.590Z,101350.44
2022-10-09T19:14:25.142Z,101350.44
2022-10-09T19:16:50.679Z,101343.81
2022-10-09T19:19:16.304Z,101348.50
2022-10-09T19:21:43.157Z,101342.97
2022-10-09T19:24:09.861Z,101354.03
2022-10-09T19:26:35.620Z,101343.81
2022-10-09T19:29:01.289Z,101344.66
2022-10-09T19:31:26.833Z,101343.81
2022-10-09T19:33:52.486Z,101342.97
2022-10-09T19:36:18.116Z,101349.34
2022-10-09T19:38:43.661Z,101350.19
2022-10-09T19:41:10.128Z,101341.06
2022-10-09T19:43:35.819Z,101343.81
2022-10-09T19:46:02.491Z,101339.13
2022-10-09T19:48:28.034Z,101335.53
2022-10-09T19:50:53.578Z,101336.34
2022-10-09T19:53:19.125Z,101336.34
2022-10-09T19:55:44.671Z,101338.28
2022-10-09T19:58:10.376Z,101331.91
2022-10-09T20:00:39.924Z,101329.13
2022-10-09T20:03:05.478Z,101327.22
2022-10-09T20:05:31.538Z,101312.53
2022-10-09T20:07:57.085Z,101324.44
2022-10-09T20:10:22.620Z,101323.59
2022-10-09T20:12:48.438Z,101314.47
2022-10-09T20:15:14.261Z,101319.75
2022-10-09T20:17:39.817Z,101322.50
2022-10-09T20:20:05.561Z,101320.81
2022-10-09T20:22:31.113Z,101315.28
2022-10-09T20:24:56.655Z,101321.69
2022-10-09T20:27:22.196Z,101313.38
2022-10-09T20:29:47.745Z,101318.06
2022-10-09T20:32:13.307Z,101314.19
2022-10-09T20:34:38.853Z,101307.84
2022-10-09T20:37:04.390Z,101311.44
2022-10-09T20:39:30.360Z,101305.06
2022-10-09T20:41:55.901Z,101312.25
2022-10-09T20:44:21.451Z,101311.44
2022-10-09T20:46:47.007Z,101305.91
2022-10-09T20:49:12.786Z,101310.59
2022-10-09T20:51:38.322Z,101306.16
2022-10-09T20:54:04.008Z,101305.91
2022-10-09T20:56:29.865Z,101303.13
2022-10-09T20:58:55.530Z,101306.72
2022-10-09T21:01:21.225Z,101302.31
2022-10-09T21:03:46.826Z,101308.94
2022-10-09T21:06:13.196Z,101302.31
2022-10-09T21:08:38.750Z,101301.19
2022-10-09T21:11:04.945Z,101295.66
2022-10-09T21:13:30.500Z,101298.69
2022-10-09T21:15:56.045Z,101294.81
2022-10-09T21:18:21.597Z,101295.91
2022-10-09T21:20:47.777Z,101295.91
2022-10-09T21:23:13.977Z,101288.47
2022-10-09T21:25:45.503Z,101291.22
2022-10-09T21:28:11.096Z,101296.78
2022-10-09T21:30:41.304Z,101288.47
2022-10-09T21:33:07.410Z,101279.31
2022-10-09T21:35:37.248Z,101291.22
2022-10-09T21:38:02.825Z,101285.69
2022-10-09T21:40:28.479Z,101287.59
2022-10-09T21:42:54.032Z,101287.34
2022-10-09T21:45:20.161Z,101282.94
2022-10-09T21:47:45.710Z,101278.47
2022-10-09T21:50:11.272Z,101274.63
2022-10-09T21:52:36.813Z,101263.56
2022-10-09T21:55:02.384Z,101263.56
2022-10-09T21:57:27.925Z,101265.47
2022-10-09T21:59:53.471Z,101256.91
2022-10-09T22:02:19.018Z,101269.09
2022-10-09T22:04:44.570Z,101256.91
2022-10-09T22:07:10.106Z,101262.44
2022-10-09T22:09:35.696Z,101254.41
2022-10-09T22:12:01.237Z,101248.84
2022-10-09T22:14:26.793Z,101251.38
2022-10-09T22:16:52.329Z,101244.19
2022-10-09T22:19:18.159Z,101249.72
2022-10-09T22:21:43.772Z,101253.31
2022-10-09T22:24:09.335Z,101237.78
2022-10-09T22:26:34.876Z,101241.41
2022-10-09T22:29:00.424Z,101241.41
2022-10-09T22:31:26.269Z,101242.25
2022-10-09T22:33:52.402Z,101235.88
2022-10-09T22:36:18.343Z,101242.25
2022-10-09T22:38:43.896Z,101233.09
2022-10-09T22:41:11.704Z,101236.69
2022-10-09T22:43:37.501Z,101231.44
2022-10-09T22:46:03.848Z,101235.03
2022-10-09T22:48:29.393Z,101229.50
2022-10-09T22:50:54.932Z,101229.50
2022-10-09T22:53:20.477Z,101226.72
2022-10-09T22:55:46.046Z,101222.88
2022-10-09T22:58:11.596Z,101224.81
2022-10-09T23:00:37.344Z,101222.03
2022-10-09T23:03:03.021Z,101213.75
2022-10-09T23:05:28.565Z,101212.63
2022-10-09T23:07:54.113Z,101211.78
2022-10-09T23:10:19.712Z,101207.34
2022-10-09T23:12:46.802Z,101201.53
2022-10-09T23:15:12.347Z,101197.13
2022-10-09T23:17:37.884Z,101201.81
2022-10-09T23:20:03.433Z,101201.81
2022-10-09T23:22:28.972Z,101205.44
2022-10-09T23:24:54.533Z,101199.91
2022-10-09T23:27:20.080Z,101195.44
2022-10-09T23:29:45.640Z,101194.38
2022-10-09T23:32:11.189Z,101195.19
2022-10-09T23:34:36.747Z,101182.16
2022-10-09T23:37:02.296Z,101186.88
2022-10-09T23:39:27.839Z,101183.28
2022-10-09T23:41:53.379Z,101181.59
2022-10-09T23:44:22.032Z,101182.44
2022-10-09T23:46:47.917Z,101183.28
2022-10-09T23:49:13.474Z,101181.59
2022-10-09T23:51:39.022Z,101180.53
2022-10-09T23:54:04.606Z,101181.59
2022-10-09T23:56:31.105Z,101185.19
2022-10-09T23:58:57.202Z,101191.59
